Tiempo atmosférico en la estación meteorológica de Las Cabezas de San Juan, Sevilla (105 m.)



Fecha
DESCASC
Temp. máxima en grados centígrados (hora)
DESCASC
Temp. mínima en grados centígrados (hora)
DESCASC
Temp. media en grados centígrados
DESCASC
Racha de viento máxima en m/sg (hora)
DESCASC
Velocidad máxima media en intervalos de 10 minutos(hora)
DESCASC
Precipitaciones diarias en mm
DESCASC
Precipitaciones de 00:00 a 06:00 en mm
DESCASC
Precipitaciones de 06:00 a 12:00 en mm
DESCASC
Precipitaciones de 12:00 a 18:00 en mm
DESCASC
Precipitaciones de 18:00 a 24:00 en mm
DESCASC
19-01-2020 15.5 (15:20) 7.2 (23:50) 11.3 13.89 (00:10) 7.5 (00:10) 0.2 0 0 0.2 0
18-01-2020 15.9 (14:10) 10.2 (00:10) 13 10.28 (23:50) 6.67 (23:50) 5.8 0 1.2 4.2 0.4
17-01-2020 18.6 (16:20) 10.3 (22:00) 14.5 6.11 (05:00) 3.89 (05:00) 0 0 0 0 0
16-01-2020 20 (16:20) 6 (00:00) 13 5.28 (16:20) 3.33 (04:20) 0 0 0 0 0
15-01-2020 19.6 (15:30) 6.3 (00:00) 13 7.22 (15:10) 4.17 (14:00) 0 0 0 0 0
14-01-2020 15.8 (15:10) 6 (00:00) 10.9 3.61 (10:50) 2.5 (10:50) 0 0 0 0 0
13-01-2020 16.6 (15:20) 2.9 (00:00) 9.8 4.17 (13:30) 3.33 (01:50) 0 0 0 0 0
12-01-2020 17.2 (16:00) 3.6 (05:10) 10.4 5.56 (15:20) 2.78 (15:10) 0 0 0 0 0
11-01-2020 16.8 (15:40) 5.2 (00:00) 11 6.11 (06:00) 3.33 (23:30) 0 0 0 0 0
10-01-2020 15.1 (15:40) 5 (00:00) 10.1 6.67 (14:40) 3.33 (14:40) 0 0 0 0 0
09-01-2020 16.7 (14:30) 3.7 (00:00) 10.2 5 (01:30) 3.89 (01:30) 0 0 0 0 0
08-01-2020 18.4 (17:00) 3.7 (00:00) 11 4.17 (23:30) 2.78 (23:30) 0 0 0 0 0
07-01-2020 16.6 (16:10) 4 (00:00) 10.3 3.33 (07:10) 2.22 (07:20) 0 0 0 0 0
06-01-2020 16.5 (16:20) 4.9 (00:00) 10.7 5.56 (14:40) 2.22 (05:50) 0 0 0 0 0
05-01-2020 16.9 (15:50) 5.5 (00:00) 11.2 3.89 (13:20) 2.22 (08:30) 0 0 0 0 0
04-01-2020 14.8 (15:40) 3.4 (00:00) 9.1 5.83 (17:00) 3.33 (16:30) 0 0 0 0 0
03-01-2020 14.7 (13:50) 6.7 (00:00) 10.7 5 (13:50) 3.06 (14:00) 0 0 0 0 0
02-01-2020 16.9 (15:50) 4.4 (00:00) 10.6 3.61 (16:50) 2.22 (14:40) 0 0 0 0 0
01-01-2020 17.7 (15:50) 4.8 (00:00) 11.3 4.17 (00:10) 1.94 (16:20) 0 0 0 0 0
31-12-2019 17.7 (16:30) 4.9 (00:00) 11.3 5 (23:40) 3.89 (23:00) 0 0 0 0 0
30-12-2019 -- (--) -- (--) -- -- (--) -- (--) -- 0 0 0 --
29-12-2019 19.5 (15:00) 6.9 (00:00) 13.2 7.22 (19:50) 5 (20:00) 0 0 0 0 0
28-12-2019 19.8 (15:50) 7.1 (00:00) 13.4 5.56 (23:59) 4.44 (23:59) 0 0 0 0 0
27-12-2019 22.1 (15:40) 8.1 (00:00) 15.1 4.17 (13:30) 3.06 (20:50) 0 0 0 0 0
26-12-2019 20.3 (15:40) 9.5 (00:00) 14.9 8.06 (15:20) 4.72 (14:20) 0 0 0 0 0
25-12-2019 20.5 (15:30) 7.9 (00:00) 14.2 3.89 (05:30) 2.5 (04:30) 0 0 0 0 0
24-12-2019 21.4 (16:20) 6.6 (09:00) 14 4.72 (00:30) 2.5 (13:50) 0 0 0 0 0

Gráficas

Temp. máximas Temp. mínimas Temp. medias Precipitaciones Rachas de viento máximas Velocidades máximas media en intervalos de 10 minutos

Datos horarios

Fecha y hora oficial Temperatura (ºC) Velocidad del viento (km/h) Dirección del viento Racha (km/h) Dirección de racha Precipitación (mm) Presión (hPa) Tendencia (hPa) Humedad (%)
2020-01-22 23:00:00 10 17 Sudeste 32 Sudeste 0 -- -- 87
2020-01-22 22:00:00 9.9 21 Sudeste 32 Sudeste 0.2 -- -- 88
2020-01-22 21:00:00 9.7 15 Sudeste 26 Sudeste 0.4 -- -- 92
2020-01-22 20:00:00 9.9 15 Sudeste 25 Sudeste 0.2 -- -- 91
2020-01-22 19:00:00 9.8 15 Sudeste 26 Sudeste 1 -- -- 92
2020-01-22 18:00:00 10.3 15 Sudeste 24 Sudeste 2.2 -- -- 92
2020-01-22 17:00:00 11.6 3 Sur 22 Sudeste 0.2 -- -- 87
2020-01-22 16:00:00 11.9 13 Sudeste 26 Sudeste 0.2 -- -- 83
2020-01-22 15:00:00 11.9 8 Sudeste 14 Sudeste 0 -- -- 87
2020-01-22 14:00:00 11 4 Este 9 Sudeste 0 -- -- 94
2020-01-22 13:00:00 10.4 3 Nordeste 10 Nordeste 1 -- -- 95
2020-01-22 12:00:00 9.7 5 Este 10 Este 0 -- -- 97
2020-01-22 11:00:00 8.9 6 Este 13 Este 0.2 -- -- 96
2020-01-22 10:00:00 8.3 3 Este 14 Sudeste 0.2 -- -- 96
2020-01-22 09:00:00 7.9 7 Sudeste 13 Sudeste 1 -- -- 96
2020-01-22 08:00:00 7.9 7 Sudeste 16 Sudeste 1.8 -- -- 95
2020-01-22 07:00:00 7.9 10 Sudeste 17 Sudeste 0.2 -- -- 94
2020-01-22 06:00:00 8 10 Sudeste 18 Sur 0.8 -- -- 93
2020-01-22 05:00:00 8 9 Sur 24 Sur 0.2 -- -- 91
2020-01-22 04:00:00 8.4 10 Sur 26 Sudeste 0.2 -- -- 88
2020-01-22 03:00:00 8.9 9 Sudeste 18 Sur 0 -- -- 83
2020-01-22 02:00:00 8.4 7 Sudeste 13 Sudeste 0 -- -- 84
2020-01-22 01:00:00 9 8 Sudeste 12 Sudeste 0 -- -- 83
2020-01-22 00:00:00 8.7 0 Calma 5 Este 0 -- -- 83
2020-01-21 23:00:00 9 3 Este 12 Norte 0 -- -- 80
2020-01-21 22:00:00 9.2 5 Norte 9 Norte 0 -- -- 78
2020-01-21 21:00:00 9.4 4 Este 13 Nordeste 0 -- -- 75
2020-01-21 20:00:00 9.4 7 Nordeste 17 Nordeste 0 -- -- 73
2020-01-21 19:00:00 9.6 9 Norte 22 Nordeste 0 -- -- 72
2020-01-21 18:00:00 10.9 13 Norte 27 Norte 0 -- -- 65
2020-01-21 17:00:00 12.3 13 Norte 31 Nordeste 0 -- -- 61
2020-01-21 16:00:00 12.3 18 Nordeste 34 Nordeste 0 -- -- 60
2020-01-21 15:00:00 12.2 19 Nordeste 35 Nordeste 0 -- -- 62
2020-01-21 14:00:00 12 22 Nordeste 42 Norte 0 -- -- 62
2020-01-21 13:00:00 10.9 19 Nordeste 37 Nordeste 0 -- -- 66
2020-01-21 12:00:00 10.8 18 Nordeste 34 Nordeste 0 -- -- 67
2020-01-21 11:00:00 9.3 12 Nordeste 26 Nordeste 0 -- -- 73
2020-01-21 10:00:00 6.9 12 Nordeste 22 Nordeste 0 -- -- 81
2020-01-21 09:00:00 5.3 9 Nordeste 24 Nordeste 0 -- -- 86
2020-01-21 08:00:00 5.1 9 Nordeste 14 Nordeste 0 -- -- 88
2020-01-21 07:00:00 5.2 5 Nordeste 16 Nordeste 0 -- -- 87
2020-01-21 06:00:00 5.8 5 Nordeste 18 Nordeste 0 -- -- 84
2020-01-21 05:00:00 6.5 6 Nordeste 22 Nordeste 0 -- -- 82
2020-01-21 04:00:00 6.9 9 Nordeste 20 Este 0 -- -- 80
2020-01-21 03:00:00 6.8 8 Nordeste 22 Nordeste 0 -- -- 81
2020-01-21 02:00:00 7.5 11 Nordeste 23 Nordeste 0 -- -- 78
2020-01-21 01:00:00 8.1 10 Nordeste 23 Nordeste 0 -- -- 76
2020-01-21 00:00:00 8.6 11 Nordeste 23 Nordeste 0 -- -- 73
2020-01-20 23:00:00 8.8 8 Nordeste 19 Nordeste 0 -- -- 73
2020-01-20 22:00:00 8.6 6 Este 23 Nordeste 0 -- -- 72
2020-01-20 21:00:00 8 8 Nordeste 22 Nordeste 0 -- -- 74
2020-01-20 20:00:00 8.2 9 Nordeste 19 Este 0 -- -- 72
2020-01-20 19:00:00 8.7 4 Nordeste 18 Nordeste 0 -- -- 72
2020-01-20 18:00:00 9.7 9 Este 24 Este 0 -- -- 66
2020-01-20 17:00:00 9.7 10 Este 35 Nordeste 0 -- -- 64
2020-01-20 16:00:00 9.8 19 Nordeste 39 Este 0 -- -- 61
2020-01-20 15:00:00 10.6 21 Nordeste 44 Nordeste 0 -- -- 58
2020-01-20 14:00:00 10.4 19 Nordeste 46 Este 0 -- -- 59
2020-01-20 13:00:00 9.3 22 Nordeste 50 Este 0 -- -- 60
2020-01-20 12:00:00 8.7 24 Nordeste 45 Nordeste 0 -- -- 60
2020-01-20 11:00:00 7.3 21 Nordeste 48 Nordeste 0 -- -- 66
2020-01-20 10:00:00 6.1 20 Nordeste 38 Nordeste 0 -- -- 69
2020-01-20 09:00:00 5.9 18 Nordeste 43 Nordeste 0 -- -- 67
2020-01-20 08:00:00 5.7 21 Nordeste 49 Nordeste 0 -- -- 69
2020-01-20 07:00:00 5.7 19 Nordeste 44 Nordeste 0 -- -- 69
2020-01-20 06:00:00 5.8 19 Nordeste 46 Nordeste 0 -- -- 71
2020-01-20 05:00:00 5.7 22 Nordeste 41 Este 0 -- -- 71
2020-01-20 04:00:00 5.6 14 Nordeste 47 Nordeste 0 -- -- 80
2020-01-20 03:00:00 6.3 28 Nordeste 50 Nordeste 0 -- -- 78
2020-01-20 02:00:00 6.3 23 Nordeste 38 Nordeste 0 -- -- 80
2020-01-20 01:00:00 6.8 19 Nordeste 43 Nordeste 0 -- -- 77
2020-01-20 00:00:00 7.3 15 Nordeste 36 Norte 0 -- -- 79
2020-01-19 23:00:00 8.3 22 Norte 41 Norte 0 -- -- 75
2020-01-19 22:00:00 9.1 18 Nordeste 46 Nordeste 0 -- -- 69
2020-01-19 21:00:00 10 11 Nordeste 22 Nordeste 0 -- -- 70
2020-01-19 20:00:00 10.9 13 Nordeste 29 Norte 0 -- -- 68
2020-01-19 19:00:00 11.1 10 Nordeste 22 Nordeste 0 -- -- 75
2020-01-19 18:00:00 11.8 15 Nordeste 37 Nordeste 0 -- -- 71
2020-01-19 17:00:00 13 12 Norte 25 Norte 0.2 -- -- 72
2020-01-19 16:00:00 12.8 8 Nordeste 30 Este 0 -- -- 75
2020-01-19 15:00:00 14.9 17 Norte 36 Norte 0 -- -- 64
2020-01-19 14:00:00 14.6 15 Norte 31 Norte 0 -- -- 70
2020-01-19 13:00:00 13.4 18 Norte 31 Nordeste 0 -- -- 75
2020-01-19 12:00:00 11.4 11 Noroeste 19 Norte 0 -- -- 88
2020-01-19 11:00:00 10 8 Noroeste 13 Noroeste 0 -- -- 92
2020-01-19 10:00:00 8.6 7 Oeste 12 Oeste 0 -- -- 94
2020-01-19 09:00:00 7.7 3 Oeste 12 Oeste 0 -- -- 94
2020-01-19 08:00:00 8.2 10 Oeste 19 Noroeste 0 -- -- 94
2020-01-19 07:00:00 8.8 12 Noroeste 24 Noroeste 0 -- -- 93
2020-01-19 06:00:00 9.3 15 Noroeste 23 Oeste 0 -- -- 95
2020-01-19 05:00:00 9.8 12 Oeste 22 Oeste 0 -- -- 94
2020-01-19 04:00:00 10.4 10 Oeste 20 Oeste 0 -- -- 93
2020-01-19 03:00:00 10.7 5 Oeste 19 Oeste 0 -- -- 93
2020-01-19 02:00:00 11.6 13 Oeste 32 Noroeste 0 -- -- 92
2020-01-19 01:00:00 12.7 21 Noroeste 50 Noroeste 0 -- -- 92
2020-01-19 00:00:00 15.1 24 Noroeste 37 Oeste 0.2 -- -- 98
2020-01-18 23:00:00 15.2 7 Oeste 23 Oeste 0 -- -- 98
2020-01-18 22:00:00 15.2 7 Oeste 23 Sudoeste 0 -- -- 98
2020-01-18 21:00:00 15.4 7 Sudoeste 20 Sudoeste 0 -- -- 98
2020-01-18 20:00:00 15.4 6 Oeste 19 Noroeste 0 -- -- 98
2020-01-18 19:00:00 15.3 7 Sudoeste 23 Sur 0.2 -- -- 98
2020-01-18 18:00:00 15.1 8 Sudoeste 21 Sudoeste 0.6 -- -- 97
2020-01-18 17:00:00 15.1 9 Sudoeste 27 Sudoeste 2.6 -- -- 96
2020-01-18 16:00:00 15.3 10 Sudoeste 27 Sudoeste 0.6 -- -- 95
2020-01-18 15:00:00 15.5 14 Sudoeste 30 Sur 0.4 -- -- 93
2020-01-18 14:00:00 15.8 18 Sur 32 Sur 0 -- -- 93
2020-01-18 13:00:00 14.8 17 Sur 26 Sur 0 -- -- 98
2020-01-18 12:00:00 13.5 12 Sur 21 Sudeste 1 -- -- 99
2020-01-18 11:00:00 12.4 7 Sur 13 Sudeste 0.2 -- -- 98
2020-01-18 10:00:00 11.5 8 Sudeste 14 Sur 0 -- -- 98
2020-01-18 09:00:00 10.4 2 Sur 8 Sudoeste 0 -- -- 98
2020-01-18 08:00:00 10.8 3 Sudoeste 9 Sur 0 -- -- 98
2020-01-18 07:00:00 10.6 2 Oeste 17 Sudeste 0 -- -- 98
2020-01-18 06:00:00 10.8 8 Sudeste 16 Sudeste 0 -- -- 99
2020-01-18 05:00:00 10.5 0 Calma 9 Este 0 -- -- 98
2020-01-18 04:00:00 10.4 4 Este 8 Sudeste 0 -- -- 98
2020-01-18 03:00:00 10.7 4 Sudeste 14 Sudeste 0 -- -- 97
2020-01-18 02:00:00 11.5 5 Sur 14 Sudeste 0 -- -- 96
2020-01-18 01:00:00 11 9 Sur 14 Sur 0 -- -- 95
2020-01-18 00:00:00 10.6 7 Sur 10 Sudeste 0 -- -- 88
2020-01-17 23:00:00 11.1 4 Sudeste 9 Sudeste 0 -- -- 89
2020-01-17 22:00:00 10.3 0 Calma 5 Este 0 -- -- 87
2020-01-17 21:00:00 12.2 4 Este 8 Este 0 -- -- 83
2020-01-17 20:00:00 13.1 6 Este 8 Este 0 -- -- 79
2020-01-17 19:00:00 14.9 5 Nordeste 11 Norte 0 -- -- 74
2020-01-17 18:00:00 17.1 8 Norte 14 Norte 0 -- -- 68
2020-01-17 17:00:00 18.1 4 Norte 9 Noroeste 0 -- -- 66
2020-01-17 16:00:00 18.2 4 Noroeste 12 Norte 0 -- -- 68
2020-01-17 15:00:00 17.9 5 Norte 11 Norte 0 -- -- 71
2020-01-17 14:00:00 17.1 4 Noroeste 16 Noroeste 0 -- -- 75
2020-01-17 13:00:00 16.7 3 Noroeste 8 Noroeste 0 -- -- 78
2020-01-17 12:00:00 16 4 Sur 13 Sur 0 -- -- 80
2020-01-17 11:00:00 14.7 9 Sur 17 Sur 0 -- -- 84
2020-01-17 10:00:00 13.5 9 Sur 17 Sur 0 -- -- 84
2020-01-17 09:00:00 12.9 11 Sur 20 Sur 0 -- -- 83
2020-01-17 08:00:00 12.8 11 Sur 20 Sur 0 -- -- 82
2020-01-17 07:00:00 12.5 11 Sur 19 Sur 0 -- -- 83
2020-01-17 06:00:00 12.4 12 Sur 21 Sur 0 -- -- 83
2020-01-17 05:00:00 12.2 14 Sur 22 Sur 0 -- -- 81
2020-01-17 04:00:00 12.1 12 Sur 19 Sur 0 -- -- 78
2020-01-17 03:00:00 12.6 12 Sur 19 Sur 0 -- -- 75
2020-01-17 02:00:00 12.3 10 Sur 18 Sudeste 0 -- -- 75
2020-01-17 01:00:00 12.7 10 Sur 17 Sudeste 0 -- -- 77
2020-01-17 00:00:00 12.5 11 Sudeste 18 Sudeste 0 -- -- 79
2020-01-16 23:00:00 12.2 9 Sudeste 18 Sudeste 0 -- -- 79
2020-01-16 22:00:00 12.4 11 Sudeste 19 Sur 0 -- -- 76
2020-01-16 21:00:00 11.8 7 Sur 13 Sur 0 -- -- 77
2020-01-16 20:00:00 12 4 Sur 6 Sur 0 -- -- 73
2020-01-16 19:00:00 14.8 3 Sudoeste 7 Sudoeste 0 -- -- 61
2020-01-16 18:00:00 17.8 4 Sudoeste 10 Oeste 0 -- -- 47
2020-01-16 17:00:00 19.3 6 Oeste 19 Sur 0 -- -- 39
2020-01-16 16:00:00 19.6 5 Oeste 15 Noroeste 0 -- -- 44
2020-01-16 15:00:00 18.6 5 Oeste 15 Sudoeste 0 -- -- 43
2020-01-16 14:00:00 17.3 4 Noroeste 15 Norte 0 -- -- 44
2020-01-16 13:00:00 16.6 8 Noroeste 13 Noroeste 0 -- -- 47
2020-01-16 12:00:00 16.9 5 Este 10 Sudeste 0 -- -- 42
2020-01-16 11:00:00 14.1 2 Sur 4 Sudeste 0 -- -- 47
2020-01-16 10:00:00 7.4 0 Calma 5 Sudeste 0 -- -- 68
2020-01-16 09:00:00 6.3 0 Calma 8 Sudeste 0 -- -- 65
2020-01-16 08:00:00 6.4 6 Sudeste 8 Sudeste 0 -- -- 66
2020-01-16 07:00:00 7.2 0 Calma 8 Este 0 -- -- 63
2020-01-16 06:00:00 8.1 5 Este 14 Sudeste 0 -- -- 59
2020-01-16 05:00:00 8.5 7 Este 16 Este 0 -- -- 59
2020-01-16 04:00:00 9 9 Este 13 Este 0 -- -- 59
2020-01-16 03:00:00 7.7 5 Este 9 Este 0 -- -- 70
2020-01-16 02:00:00 8.4 5 Este 11 Este 0 -- -- 71
2020-01-16 01:00:00 9 3 Sudeste 6 Sudeste 0 -- -- 73
2020-01-16 00:00:00 9.6 3 Sur 9 Sudeste 0 -- -- 72
2020-01-15 23:00:00 10.3 4 Sur 9 Sur 0 -- -- 72
2020-01-15 22:00:00 11.4 6 Sur 14 Sur 0 -- -- 70
2020-01-15 21:00:00 11.5 12 Sudeste 14 Sudeste 0 -- -- 74
2020-01-15 20:00:00 13 3 Sudeste 6 Sudeste 0 -- -- 72
2020-01-15 19:00:00 14.6 3 Sudoeste 9 Sur 0 -- -- 67
2020-01-15 18:00:00 16.8 3 Sudoeste 17 Oeste 0 -- -- 59
2020-01-15 17:00:00 18.7 4 Sudoeste 21 Sudoeste 0 -- -- 50
2020-01-15 16:00:00 19.6 11 Sudoeste 26 Sur 0 -- -- 44
2020-01-15 15:00:00 19.2 14 Sur 23 Sur 0 -- -- 51
2020-01-15 14:00:00 18 15 Sur 24 Sudoeste 0 -- -- 60
2020-01-15 13:00:00 17.2 13 Sur 22 Sur 0 -- -- 60
2020-01-15 12:00:00 15.4 6 Sur 17 Sudeste 0 -- -- 63
2020-01-15 11:00:00 12.5 8 Sudeste 15 Este 0 -- -- 71
2020-01-15 10:00:00 8 5 Este 10 Sudeste 0 -- -- 86
2020-01-15 09:00:00 6.3 4 Este 15 Sudeste 0 -- -- 89
2020-01-15 08:00:00 7.4 9 Sudeste 18 Sudeste 0 -- -- 90
2020-01-15 07:00:00 7.5 13 Sudeste 18 Sudeste 0 -- -- 88
2020-01-15 06:00:00 7.6 8 Sudeste 15 Sudeste 0 -- -- 87
2020-01-15 05:00:00 8.2 12 Sudeste 15 Sudeste 0 -- -- 82
2020-01-15 04:00:00 9.1 9 Sudeste 14 Sudeste 0 -- -- 80
2020-01-15 03:00:00 9.5 9 Sudeste 17 Este 0 -- -- 78
2020-01-15 02:00:00 9.6 9 Sudeste 13 Sudeste 0 -- -- 77
2020-01-15 01:00:00 9.6 6 Sudeste 12 Sudeste 0 -- -- 79
2020-01-15 00:00:00 9.9 9 Sudeste 13 Sudeste 0 -- -- 77
2020-01-14 23:00:00 8.2 6 Sudeste 10 Sudeste 0 -- -- 85
2020-01-14 22:00:00 7.8 3 Sudeste 4 Sudeste 0 -- -- 83
2020-01-14 21:00:00 8.5 3 Sur 5 Sudeste 0 -- -- 80
2020-01-14 20:00:00 9.6 3 Sur 4 Sudoeste 0 -- -- 77
2020-01-14 19:00:00 11.6 0 Calma 5 Oeste 0 -- -- 70
2020-01-14 18:00:00 14.7 2 Sudoeste 9 Noroeste 0 -- -- 59
2020-01-14 17:00:00 15.3 3 Oeste 13 Noroeste 0 -- -- 55
2020-01-14 16:00:00 15.5 5 Noroeste 12 Noroeste 0 -- -- 54
2020-01-14 15:00:00 15.5 4 Oeste 12 Oeste 0 -- -- 56
2020-01-14 14:00:00 14.7 3 Este 12 Oeste 0 -- -- 61
2020-01-14 13:00:00 13.5 4 Oeste 10 Noroeste 0 -- -- 68
2020-01-14 12:00:00 12.6 3 Noroeste 8 Noroeste 0 -- -- 72
2020-01-14 11:00:00 10.9 8 Sudeste 13 Sudeste 0 -- -- 77
2020-01-14 10:00:00 7.7 4 Este 8 Este 0 -- -- 88
2020-01-14 09:00:00 6.6 4 Sudeste 5 Sudeste 0 -- -- 88
2020-01-14 08:00:00 7.3 0 Calma 8 Este 0 -- -- 85
2020-01-14 07:00:00 8.1 6 Este 9 Este 0 -- -- 85
2020-01-14 06:00:00 7.7 3 Este 7 Este 0 -- -- 88
2020-01-14 05:00:00 6.7 3 Este 8 Oeste 0 -- -- 90
2020-01-14 04:00:00 6.1 4 Este 12 Oeste 0 -- -- 88
2020-01-14 03:00:00 6.9 3 Norte 9 Este 0 -- -- 87
2020-01-14 02:00:00 6 4 Sudeste 8 Este 0 -- -- 87
2020-01-14 01:00:00 7.9 3 Sudeste 7 Sudeste 0 -- -- 81
2020-01-14 00:00:00 8.8 3 Sudeste 10 Este 0 -- -- 79
2020-01-13 23:00:00 9.1 5 Sudeste 10 Sudeste 0 -- -- 78
2020-01-13 22:00:00 10.1 5 Este 9 Este 0 -- -- 73
2020-01-13 21:00:00 10.9 5 Sudeste 8 Sudeste 0 -- -- 74
2020-01-13 20:00:00 11.7 2 Nordeste 9 Norte 0 -- -- 71
2020-01-13 19:00:00 11.5 0 Calma 5 Norte 0 -- -- 70
2020-01-13 18:00:00 14.4 4 Noroeste 8 Noroeste 0 -- -- 60
2020-01-13 17:00:00 15.7 4 Oeste 11 Noroeste 0 -- -- 54
2020-01-13 16:00:00 16.1 5 Noroeste 15 Noroeste 0 -- -- 54
2020-01-13 15:00:00 16.2 3 Sur 12 Nordeste 0 -- -- 52
2020-01-13 14:00:00 15 6 Nordeste 15 Norte 0 -- -- 59
2020-01-13 13:00:00 13.6 7 Nordeste 15 Nordeste 0 -- -- 63
2020-01-13 12:00:00 12.5 6 Nordeste 14 Nordeste 0 -- -- 66
2020-01-13 11:00:00 9.8 5 Nordeste 14 Este 0 -- -- 74
2020-01-13 10:00:00 5.4 5 Este 14 Este 0 -- -- 89
2020-01-13 09:00:00 3.1 2 Este 8 Este 0 -- -- 90
2020-01-13 08:00:00 4 6 Este 9 Este 0 -- -- 91
2020-01-13 07:00:00 6.4 8 Sudeste 11 Sur 0 -- -- 87
2020-01-13 06:00:00 5 3 Sudeste 8 Sudeste 0 -- -- 92
2020-01-13 05:00:00 4.1 3 Sudeste 6 Este 0 -- -- 91
2020-01-13 04:00:00 6 3 Sudeste 11 Sudeste 0 -- -- 86
2020-01-13 03:00:00 6.4 7 Sudeste 10 Sudeste 0 -- -- 84
2020-01-13 02:00:00 8 9 Sudeste 14 Sudeste 0 -- -- 82
2020-01-13 01:00:00 6 4 Sudeste 8 Este 0 -- -- 82
2020-01-13 00:00:00 5.7 6 Este 8 Este 0 -- -- 78
2020-01-12 23:00:00 7.4 6 Este 7 Este 0 -- -- 72
2020-01-12 22:00:00 8.7 5 Este 10 Este 0 -- -- 69
2020-01-12 21:00:00 9.1 6 Este 9 Este 0 -- -- 67
2020-01-12 20:00:00 10.3 5 Este 10 Nordeste 0 -- -- 62
2020-01-12 19:00:00 11.8 5 Nordeste 10 Norte 0 -- -- 58
2020-01-12 18:00:00 14.5 6 Norte 15 Norte 0 -- -- 50
2020-01-12 17:00:00 16.9 8 Nordeste 17 Norte 0 -- -- 44
2020-01-12 16:00:00 17.2 8 Nordeste 20 Norte 0 -- -- 49
2020-01-12 15:00:00 16.6 8 Norte 18 Norte 0 -- -- 54
2020-01-12 14:00:00 15.4 6 Norte 15 Norte 0 -- -- 59
2020-01-12 13:00:00 13.7 6 Norte 13 Norte 0 -- -- 63
2020-01-12 12:00:00 12.4 6 Norte 10 Norte 0 -- -- 70
2020-01-12 11:00:00 11.6 4 Sudeste 8 Este 0 -- -- 72
2020-01-12 10:00:00 6.1 2 Este 6 Sudeste 0 -- -- 93
2020-01-12 09:00:00 4.3 0 Calma 9 Este 0 -- -- 91
2020-01-12 08:00:00 4.1 6 Este 8 Este 0 -- -- 94
2020-01-12 07:00:00 4.4 3 Este 8 Este 0 -- -- 93
2020-01-12 06:00:00 4 4 Este 9 Este 0 -- -- 94
2020-01-12 05:00:00 3.7 3 Sudeste 5 Sudeste 0 -- -- 93
2020-01-12 04:00:00 4.1 4 Este 6 Este 0 -- -- 92
2020-01-12 03:00:00 4.6 4 Este 7 Este 0 -- -- 90
2020-01-12 02:00:00 5.3 4 Este 6 Este 0 -- -- 87
2020-01-12 01:00:00 7.9 0 Calma 13 Sudeste 0 -- -- 78
2020-01-12 00:00:00 10 10 Sudeste 15 Sudeste 0 -- -- 70
2020-01-11 23:00:00 10 11 Sudeste 14 Sudeste 0 -- -- 65
2020-01-11 22:00:00 9.3 6 Este 8 Sudeste 0 -- -- 67
2020-01-11 21:00:00 9.6 5 Este 7 Este 0 -- -- 65
2020-01-11 20:00:00 10.2 4 Este 6 Este 0 -- -- 65
2020-01-11 19:00:00 12.2 5 Este 8 Este 0 -- -- 60
2020-01-11 18:00:00 14.5 5 Nordeste 15 Nordeste 0 -- -- 55
2020-01-11 17:00:00 16.5 9 Norte 15 Norte 0 -- -- 50
2020-01-11 16:00:00 16.6 10 Norte 18 Noroeste 0 -- -- 49
2020-01-11 15:00:00 16.6 8 Norte 18 Norte 0 -- -- 52
2020-01-11 14:00:00 15.6 6 Nordeste 14 Nordeste 0 -- -- 54
2020-01-11 13:00:00 13.8 8 Nordeste 14 Este 0 -- -- 58
2020-01-11 12:00:00 12 5 Este 19 Este 0 -- -- 63
2020-01-11 11:00:00 9.4 5 Este 14 Este 0 -- -- 67
2020-01-11 10:00:00 6.1 4 Nordeste 11 Este 0 -- -- 77
2020-01-11 09:00:00 5.2 4 Nordeste 18 Este 0 -- -- 77
2020-01-11 08:00:00 5.9 8 Este 18 Este 0 -- -- 74
2020-01-11 07:00:00 6.3 7 Nordeste 17 Este 0 -- -- 73
2020-01-11 06:00:00 6.5 9 Este 22 Este 0 -- -- 72
2020-01-11 05:00:00 5.6 7 Este 16 Este 0 -- -- 77
2020-01-11 04:00:00 5.6 6 Nordeste 16 Nordeste 0 -- -- 77
2020-01-11 03:00:00 6.2 7 Este 14 Este 0 -- -- 74
2020-01-11 02:00:00 6.4 6 Nordeste 18 Nordeste 0 -- -- 74
2020-01-11 01:00:00 6.1 6 Nordeste 13 Este 0 -- -- 78
2020-01-11 00:00:00 7.4 5 Este 12 Este 0 -- -- 77
2020-01-10 23:00:00 7.6 6 Nordeste 12 Nordeste 0 -- -- 85
2020-01-10 22:00:00 8.9 5 Este 10 Este 0 -- -- 84
2020-01-10 21:00:00 9.6 5 Este 8 Nordeste 0 -- -- 83
2020-01-10 20:00:00 9.7 3 Nordeste 8 Nordeste 0 -- -- 82
2020-01-10 19:00:00 11 4 Norte 8 Norte 0 -- -- 78
2020-01-10 18:00:00 12.9 6 Norte 18 Norte 0 -- -- 72
2020-01-10 17:00:00 14.8 8 Norte 19 Norte 0 -- -- 67
2020-01-10 16:00:00 14.9 10 Norte 22 Nordeste 0 -- -- 65
2020-01-10 15:00:00 14.3 12 Norte 24 Nordeste 0 -- -- 69
2020-01-10 14:00:00 12.8 9 Norte 18 Norte 0 -- -- 80
2020-01-10 13:00:00 11 4 Nordeste 12 Norte 0 -- -- 86
2020-01-10 12:00:00 9.1 5 Norte 10 Norte 0 -- -- 97
2020-01-10 11:00:00 7.3 0 Calma 4 Noroeste 0 -- -- 99
2020-01-10 10:00:00 6.7 0 Calma 5 Oeste 0 -- -- 97
2020-01-10 09:00:00 6.5 3 Noroeste 6 Oeste 0 -- -- 97
2020-01-10 08:00:00 6.7 2 Sudeste 6 Sudoeste 0 -- -- 97
2020-01-10 07:00:00 7.1 3 Sudoeste 5 Sudoeste 0 -- -- 97
2020-01-10 06:00:00 5.7 0 Calma 4 Sudeste 0 -- -- 96
2020-01-10 05:00:00 5.5 2 Sudeste 6 Sudeste 0 -- -- 95
2020-01-10 04:00:00 6.3 3 Sur 9 Oeste 0 -- -- 94
2020-01-10 03:00:00 7.9 2 Sudeste 12 Sudeste 0 -- -- 92
2020-01-10 02:00:00 8.7 10 Sudeste 13 Sudeste 0 -- -- 95
2020-01-10 01:00:00 8 4 Este 10 Sur 0 -- -- 95
2020-01-10 00:00:00 7.9 4 Sudeste 8 Sudeste 0 -- -- 96
2020-01-09 23:00:00 6.3 4 Sudoeste 6 Sudoeste 0 -- -- 94
2020-01-09 22:00:00 6.7 0 Calma 3 Sur 0 -- -- 91
2020-01-09 21:00:00 7.7 0 Calma 4 Sudeste 0 -- -- 89
2020-01-09 20:00:00 9.4 0 Calma 4 Nordeste 0 -- -- 83
2020-01-09 19:00:00 11.6 0 Calma 6 Norte 0 -- -- 76
2020-01-09 18:00:00 14.3 5 Norte 9 Norte 0 -- -- 67
2020-01-09 17:00:00 16.3 3 Sudoeste 13 Noroeste 0 -- -- 60
2020-01-09 16:00:00 16.1 10 Norte 16 Noroeste 0 -- -- 62
2020-01-09 15:00:00 16 10 Noroeste 17 Noroeste 0 -- -- 63
2020-01-09 14:00:00 16.1 5 Sudeste 15 Sudeste 0 -- -- 63
2020-01-09 13:00:00 14.3 5 Nordeste 13 Nordeste 0 -- -- 70
2020-01-09 12:00:00 13.2 4 Nordeste 12 Norte 0 -- -- 73
2020-01-09 11:00:00 10.5 5 Nordeste 9 Nordeste 0 -- -- 90
2020-01-09 10:00:00 7.4 0 Calma 9 Este 0 -- -- 96
2020-01-09 09:00:00 4.9 6 Este 13 Este 0 -- -- 96
2020-01-09 08:00:00 4.2 7 Este 10 Este 0 -- -- 96
2020-01-09 07:00:00 4.2 6 Este 8 Este 0 -- -- 94
2020-01-09 06:00:00 4.9 3 Este 5 Este 0 -- -- 94
2020-01-09 05:00:00 5.4 3 Sudeste 4 Sudeste 0 -- -- 91
2020-01-09 04:00:00 7.1 4 Noroeste 11 Sudeste 0 -- -- 86
2020-01-09 03:00:00 8.3 9 Sudeste 13 Sudeste 0 -- -- 89
2020-01-09 02:00:00 9.6 7 Sur 18 Sudeste 0 -- -- 82
2020-01-09 01:00:00 8.7 7 Sur 12 Sur 0 -- -- 90
2020-01-09 00:00:00 10 6 Sur 15 Sur 0 -- -- 85
2020-01-08 23:00:00 10.5 9 Sur 14 Sur 0 -- -- 81
2020-01-08 22:00:00 7.1 6 Sur 9 Sur 0 -- -- 88
2020-01-08 21:00:00 7.3 3 Sur 5 Sur 0 -- -- 84
2020-01-08 20:00:00 8.8 0 Calma 4 Este 0 -- -- 80
2020-01-08 19:00:00 11.2 2 Este 3 Noroeste 0 -- -- 73
2020-01-08 18:00:00 15.4 0 Calma 6 Noroeste 0 -- -- 59
2020-01-08 17:00:00 18.4 2 Noroeste 6 Noroeste 0 -- -- 52
2020-01-08 16:00:00 18.2 2 Norte 9 Nordeste 0 -- -- 51
2020-01-08 15:00:00 17.3 5 Norte 12 Este 0 -- -- 51
2020-01-08 14:00:00 15.9 3 Este 10 Este 0 -- -- 58
2020-01-08 13:00:00 13.9 5 Nordeste 12 Nordeste 0 -- -- 65
2020-01-08 12:00:00 11.5 7 Norte 11 Noroeste 0 -- -- 69
2020-01-08 11:00:00 10 2 Este 8 Este 0 -- -- 68
2020-01-08 10:00:00 5.8 2 Norte 5 Norte 0 -- -- 86
2020-01-08 09:00:00 5 3 Este 8 Este 0 -- -- 86
2020-01-08 08:00:00 5 6 Este 10 Este 0 -- -- 93
2020-01-08 07:00:00 5.5 4 Este 9 Este 0 -- -- 95
2020-01-08 06:00:00 5.5 6 Este 9 Este 0 -- -- 97
2020-01-08 05:00:00 3.7 3 Sudeste 5 Este 0 -- -- 95
2020-01-08 04:00:00 5.2 4 Este 9 Este 0 -- -- 96
2020-01-08 03:00:00 4.4 4 Este 7 Este 0 -- -- 96
2020-01-08 02:00:00 4.7 4 Sudeste 6 Sudoeste 0 -- -- 94
2020-01-08 01:00:00 4.7 5 Sudoeste 6 Sur 0 -- -- 94
2020-01-08 00:00:00 5.6 0 Calma 8 Sudeste 0 -- -- 93
2020-01-07 23:00:00 6 3 Sudeste 5 Este 0 -- -- 92
2020-01-07 22:00:00 6.6 3 Este 4 Este 0 -- -- 89
2020-01-07 21:00:00 7.9 3 Sudeste 5 Sudeste 0 -- -- 86
2020-01-07 20:00:00 9.6 3 Sudeste 7 Este 0 -- -- 79
2020-01-07 19:00:00 11.6 4 Este 6 Este 0 -- -- 74
2020-01-07 18:00:00 14.5 4 Nordeste 11 Norte 0 -- -- 63
2020-01-07 17:00:00 16.2 7 Norte 10 Norte 0 -- -- 56
2020-01-07 16:00:00 16.5 3 Norte 10 Norte 0 -- -- 54
2020-01-07 15:00:00 15.4 4 Noroeste 9 Norte 0 -- -- 60
2020-01-07 14:00:00 14 4 Noroeste 9 Noroeste 0 -- -- 66
2020-01-07 13:00:00 12.5 6 Norte 10 Norte 0 -- -- 75
2020-01-07 12:00:00 12.2 6 Sur 12 Sudoeste 0 -- -- 76
2020-01-07 11:00:00 8.1 3 Este 9 Sudeste 0 -- -- 96
2020-01-07 10:00:00 4.9 0 Calma 7 Noroeste 0 -- -- 97
2020-01-07 09:00:00 4.3 2 Norte 8 Este 0 -- -- 96
2020-01-07 08:00:00 5.4 6 Este 12 Este 0 -- -- 97
2020-01-07 07:00:00 5.5 6 Este 10 Este 0 -- -- 97
2020-01-07 06:00:00 5.1 4 Nordeste 8 Este 0 -- -- 96
2020-01-07 05:00:00 5.8 2 Sur 8 Este 0 -- -- 97
2020-01-07 04:00:00 5.6 3 Sudeste 8 Sur 0 -- -- 95
2020-01-07 03:00:00 6.3 5 Sudeste 9 Sudeste 0 -- -- 95
2020-01-07 02:00:00 6.2 0 Calma 9 Sur 0 -- -- 94
2020-01-07 01:00:00 6.1 2 Sur 5 Sudeste 0 -- -- 94
2020-01-07 00:00:00 5.7 0 Calma 5 Sudoeste 0 -- -- 92
2020-01-06 23:00:00 6.1 2 Nordeste 5 Este 0 -- -- 90
2020-01-06 22:00:00 8.3 5 Este 8 Nordeste 0 -- -- 86
2020-01-06 21:00:00 8.6 4 Este 5 Este 0 -- -- 84
2020-01-06 20:00:00 10.3 5 Este 8 Nordeste 0 -- -- 79
2020-01-06 19:00:00 11.7 5 Este 8 Norte 0 -- -- 74
2020-01-06 18:00:00 14 4 Norte 9 Nordeste 0 -- -- 67
2020-01-06 17:00:00 16.2 4 Nordeste 10 Nordeste 0 -- -- 59
2020-01-06 16:00:00 16.2 4 Nordeste 12 Norte 0 -- -- 59
2020-01-06 15:00:00 16 5 Nordeste 20 Nordeste 0 -- -- 62
2020-01-06 14:00:00 15.2 5 Nordeste 14 Nordeste 0 -- -- 65
2020-01-06 13:00:00 14.1 7 Norte 13 Norte 0 -- -- 69
2020-01-06 12:00:00 13 5 Nordeste 12 Este 0 -- -- 72
2020-01-06 11:00:00 11.1 5 Este 11 Este 0 -- -- 79
2020-01-06 10:00:00 7.7 5 Este 10 Este 0 -- -- 94